sensor_id;sensor_type;location;lat;lon;timestamp;temperature;humidity
23869;DHT22;12115;47.128;15.422;2023-10-09T00:01:51;12.00;99.90
23869;DHT22;12115;47.128;15.422;2023-10-09T00:04:18;12.00;99.90
23869;DHT22;12115;47.128;15.422;2023-10-09T00:06:47;12.10;99.90
23869;DHT22;12115;47.128;15.422;2023-10-09T00:09:15;12.00;99.90
23869;DHT22;12115;47.128;15.422;2023-10-09T00:12:05;12.10;99.90
23869;DHT22;12115;47.128;15.422;2023-10-09T00:14:37;12.10;99.90
23869;DHT22;12115;47.128;15.422;2023-10-09T00:17:05;12.00;99.90
23869;DHT22;12115;47.128;15.422;2023-10-09T00:19:38;12.00;99.90
23869;DHT22;12115;47.128;15.422;2023-10-09T00:22:05;11.90;99.90
23869;DHT22;12115;47.128;15.422;2023-10-09T00:24:37;11.80;99.90
23869;DHT22;12115;47.128;15.422;2023-10-09T00:27:11;11.70;99.90
23869;DHT22;12115;47.128;15.422;2023-10-09T00:29:40;11.70;99.90
23869;DHT22;12115;47.128;15.422;2023-10-09T00:32:12;11.60;99.90
23869;DHT22;12115;47.128;15.422;2023-10-09T00:34:59;11.70;99.90
23869;DHT22;12115;47.128;15.422;2023-10-09T00:37:46;11.60;99.90
23869;DHT22;12115;47.128;15.422;2023-10-09T00:40:14;11.70;99.90
23869;DHT22;12115;47.128;15.422;2023-10-09T00:42:47;11.60;99.90
23869;DHT22;12115;47.128;15.422;2023-10-09T00:45:15;11.70;99.90
23869;DHT22;12115;47.128;15.422;2023-10-09T00:47:51;11.60;99.90
23869;DHT22;12115;47.128;15.422;2023-10-09T00:50:23;11.60;99.90
23869;DHT22;12115;47.128;15.422;2023-10-09T00:52:51;11.60;99.90
23869;DHT22;12115;47.128;15.422;2023-10-09T00:55:21;11.60;99.90
23869;DHT22;12115;47.128;15.422;2023-10-09T00:57:54;11.60;99.90
23869;DHT22;12115;47.128;15.422;2023-10-09T01:00:34;11.60;99.90
23869;DHT22;12115;47.128;15.422;2023-10-09T01:03:16;11.60;99.90
23869;DHT22;12115;47.128;15.422;2023-10-09T01:12:20;11.50;99.90
23869;DHT22;12115;47.128;15.422;2023-10-09T01:18:46;11.60;99.90
23869;DHT22;12115;47.128;15.422;2023-10-09T01:21:17;11.60;99.90
23869;DHT22;12115;47.128;15.422;2023-10-09T01:23:45;11.60;99.90
23869;DHT22;12115;47.128;15.422;2023-10-09T01:26:32;11.60;99.90
23869;DHT22;12115;47.128;15.422;2023-10-09T01:29:07;11.60;99.90
23869;DHT22;12115;47.128;15.422;2023-10-09T01:31:46;11.60;99.90
23869;DHT22;12115;47.128;15.422;2023-10-09T01:36:54;11.50;99.90
23869;DHT22;12115;47.128;15.422;2023-10-09T01:39:23;11.50;99.90
23869;DHT22;12115;47.128;15.422;2023-10-09T01:42:09;11.50;99.90
23869;DHT22;12115;47.128;15.422;2023-10-09T01:47:35;11.50;99.90
23869;DHT22;12115;47.128;15.422;2023-10-09T01:50:05;11.50;99.90
23869;DHT22;12115;47.128;15.422;2023-10-09T01:52:37;11.50;99.90
23869;DHT22;12115;47.128;15.422;2023-10-09T01:55:05;11.50;99.90
23869;DHT22;12115;47.128;15.422;2023-10-09T01:57:34;11.50;99.90
23869;DHT22;12115;47.128;15.422;2023-10-09T02:00:01;11.50;99.90
23869;DHT22;12115;47.128;15.422;2023-10-09T02:02:37;11.50;99.90
23869;DHT22;12115;47.128;15.422;2023-10-09T02:05:06;11.50;99.90
23869;DHT22;12115;47.128;15.422;2023-10-09T02:07:38;11.50;99.90
23869;DHT22;12115;47.128;15.422;2023-10-09T02:10:12;11.50;99.90
23869;DHT22;12115;47.128;15.422;2023-10-09T02:12:52;11.50;99.90
23869;DHT22;12115;47.128;15.422;2023-10-09T02:15:26;11.50;99.90
23869;DHT22;12115;47.128;15.422;2023-10-09T02:18:09;11.50;99.90
23869;DHT22;12115;47.128;15.422;2023-10-09T02:20:53;11.50;99.90
23869;DHT22;12115;47.128;15.422;2023-10-09T02:23:48;11.50;99.90
23869;DHT22;12115;47.128;15.422;2023-10-09T02:26:23;11.50;99.90
23869;DHT22;12115;47.128;15.422;2023-10-09T02:29:00;11.50;99.90
23869;DHT22;12115;47.128;15.422;2023-10-09T02:31:42;11.50;99.90
23869;DHT22;12115;47.128;15.422;2023-10-09T02:34:18;11.50;99.90
23869;DHT22;12115;47.128;15.422;2023-10-09T02:39:53;11.50;99.90
23869;DHT22;12115;47.128;15.422;2023-10-09T02:42:25;11.50;99.90
23869;DHT22;12115;47.128;15.422;2023-10-09T02:44:58;11.50;99.90
23869;DHT22;12115;47.128;15.422;2023-10-09T02:47:26;11.50;99.90
23869;DHT22;12115;47.128;15.422;2023-10-09T02:50:05;11.50;99.90
23869;DHT22;12115;47.128;15.422;2023-10-09T02:52:38;11.60;99.90
23869;DHT22;12115;47.128;15.422;2023-10-09T02:55:09;11.50;99.90
23869;DHT22;12115;47.128;15.422;2023-10-09T02:57:50;11.50;99.90
23869;DHT22;12115;47.128;15.422;2023-10-09T03:00:32;11.50;99.90
23869;DHT22;12115;47.128;15.422;2023-10-09T03:03:03;11.50;99.90
23869;DHT22;12115;47.128;15.422;2023-10-09T03:05:34;11.50;99.90
23869;DHT22;12115;47.128;15.422;2023-10-09T03:08:08;11.60;99.90
23869;DHT22;12115;47.128;15.422;2023-10-09T03:10:39;11.50;99.90
23869;DHT22;12115;47.128;15.422;2023-10-09T03:13:06;11.50;99.90
23869;DHT22;12115;47.128;15.422;2023-10-09T03:15:33;11.60;99.90
23869;DHT22;12115;47.128;15.422;2023-10-09T03:18:03;11.60;99.90
23869;DHT22;12115;47.128;15.422;2023-10-09T03:20:34;11.50;99.90
23869;DHT22;12115;47.128;15.422;2023-10-09T03:23:11;11.50;99.90
23869;DHT22;12115;47.128;15.422;2023-10-09T03:25:42;11.50;99.90
23869;DHT22;12115;47.128;15.422;2023-10-09T03:28:14;11.50;99.90
23869;DHT22;12115;47.128;15.422;2023-10-09T03:31:01;11.50;99.90
23869;DHT22;12115;47.128;15.422;2023-10-09T03:33:30;11.50;99.90
23869;DHT22;12115;47.128;15.422;2023-10-09T03:36:02;11.50;99.90
23869;DHT22;12115;47.128;15.422;2023-10-09T03:38:34;11.50;99.90
23869;DHT22;12115;47.128;15.422;2023-10-09T03:41:02;11.60;99.90
23869;DHT22;12115;47.128;15.422;2023-10-09T03:43:33;11.60;99.90
23869;DHT22;12115;47.128;15.422;2023-10-09T03:46:04;11.60;99.90
23869;DHT22;12115;47.128;15.422;2023-10-09T03:48:33;11.60;99.90
23869;DHT22;12115;47.128;15.422;2023-10-09T03:51:04;11.50;99.90
23869;DHT22;12115;47.128;15.422;2023-10-09T03:53:39;11.50;99.90
23869;DHT22;12115;47.128;15.422;2023-10-09T03:56:07;11.50;99.90
23869;DHT22;12115;47.128;15.422;2023-10-09T03:58:40;11.50;99.90
23869;DHT22;12115;47.128;15.422;2023-10-09T04:01:10;11.50;99.90
23869;DHT22;12115;47.128;15.422;2023-10-09T04:03:44;11.50;99.90
23869;DHT22;12115;47.128;15.422;2023-10-09T04:06:11;11.50;99.90
23869;DHT22;12115;47.128;15.422;2023-10-09T04:08:40;11.40;99.90
23869;DHT22;12115;47.128;15.422;2023-10-09T04:11:14;11.40;99.90
23869;DHT22;12115;47.128;15.422;2023-10-09T04:13:45;11.30;99.90
23869;DHT22;12115;47.128;15.422;2023-10-09T04:16:16;11.30;99.90
23869;DHT22;12115;47.128;15.422;2023-10-09T04:18:58;11.20;99.90
23869;DHT22;12115;47.128;15.422;2023-10-09T04:21:26;11.20;99.90
23869;DHT22;12115;47.128;15.422;2023-10-09T04:24:07;11.10;99.90
23869;DHT22;12115;47.128;15.422;2023-10-09T04:26:43;11.10;99.90
23869;DHT22;12115;47.128;15.422;2023-10-09T04:29:14;11.10;99.90
23869;DHT22;12115;47.128;15.422;2023-10-09T04:31:57;11.10;99.90
23869;DHT22;12115;47.128;15.422;2023-10-09T04:34:27;11.10;99.90
23869;DHT22;12115;47.128;15.422;2023-10-09T04:36:55;11.00;99.90
23869;DHT22;12115;47.128;15.422;2023-10-09T04:39:51;10.90;99.90
23869;DHT22;12115;47.128;15.422;2023-10-09T04:42:28;10.80;99.90
23869;DHT22;12115;47.128;15.422;2023-10-09T04:45:05;10.70;99.90
23869;DHT22;12115;47.128;15.422;2023-10-09T04:47:33;10.70;99.90
23869;DHT22;12115;47.128;15.422;2023-10-09T04:50:08;10.70;99.90
23869;DHT22;12115;47.128;15.422;2023-10-09T04:52:38;10.60;99.90
23869;DHT22;12115;47.128;15.422;2023-10-09T04:55:05;10.60;99.90
23869;DHT22;12115;47.128;15.422;2023-10-09T04:57:36;10.60;99.90
23869;DHT22;12115;47.128;15.422;2023-10-09T05:00:28;10.60;99.90
23869;DHT22;12115;47.128;15.422;2023-10-09T05:03:00;10.50;99.90
23869;DHT22;12115;47.128;15.422;2023-10-09T05:05:52;10.50;99.90
23869;DHT22;12115;47.128;15.422;2023-10-09T05:08:27;10.50;99.90
23869;DHT22;12115;47.128;15.422;2023-10-09T05:10:58;10.50;99.90
23869;DHT22;12115;47.128;15.422;2023-10-09T05:16:10;10.40;99.90
23869;DHT22;12115;47.128;15.422;2023-10-09T05:18:42;10.40;99.90
23869;DHT22;12115;47.128;15.422;2023-10-09T05:21:12;10.40;99.90
23869;DHT22;12115;47.128;15.422;2023-10-09T05:23:39;10.40;99.90
23869;DHT22;12115;47.128;15.422;2023-10-09T05:26:15;10.40;99.90
23869;DHT22;12115;47.128;15.422;2023-10-09T05:29:24;10.40;99.90
23869;DHT22;12115;47.128;15.422;2023-10-09T05:32:01;10.40;99.90
23869;DHT22;12115;47.128;15.422;2023-10-09T05:34:32;10.40;99.90
23869;DHT22;12115;47.128;15.422;2023-10-09T05:37:18;10.30;99.90
23869;DHT22;12115;47.128;15.422;2023-10-09T05:39:49;10.30;99.90
23869;DHT22;12115;47.128;15.422;2023-10-09T05:42:35;10.30;99.90
23869;DHT22;12115;47.128;15.422;2023-10-09T05:45:12;10.30;99.90
23869;DHT22;12115;47.128;15.422;2023-10-09T05:47:46;10.30;99.90
23869;DHT22;12115;47.128;15.422;2023-10-09T05:50:20;10.30;99.90
23869;DHT22;12115;47.128;15.422;2023-10-09T05:52:51;10.30;99.90
23869;DHT22;12115;47.128;15.422;2023-10-09T05:55:23;10.30;99.90
23869;DHT22;12115;47.128;15.422;2023-10-09T05:57:53;10.30;99.90
23869;DHT22;12115;47.128;15.422;2023-10-09T06:00:38;10.40;99.90
23869;DHT22;12115;47.128;15.422;2023-10-09T06:03:24;10.30;99.90
23869;DHT22;12115;47.128;15.422;2023-10-09T06:06:15;10.40;99.90
23869;DHT22;12115;47.128;15.422;2023-10-09T06:09:05;10.40;99.90
23869;DHT22;12115;47.128;15.422;2023-10-09T06:11:58;10.50;99.90
23869;DHT22;12115;47.128;15.422;2023-10-09T06:14:45;10.50;99.90
23869;DHT22;12115;47.128;15.422;2023-10-09T06:17:16;10.60;99.90
23869;DHT22;12115;47.128;15.422;2023-10-09T06:19:50;10.60;99.90
23869;DHT22;12115;47.128;15.422;2023-10-09T06:22:28;10.70;99.90
23869;DHT22;12115;47.128;15.422;2023-10-09T06:25:23;10.70;99.90
23869;DHT22;12115;47.128;15.422;2023-10-09T06:27:59;10.60;99.90
23869;DHT22;12115;47.128;15.422;2023-10-09T06:30:28;10.70;99.90
23869;DHT22;12115;47.128;15.422;2023-10-09T06:33:00;10.70;99.90
23869;DHT22;12115;47.128;15.422;2023-10-09T06:35:47;10.80;99.90
23869;DHT22;12115;47.128;15.422;2023-10-09T06:38:23;10.90;99.90
23869;DHT22;12115;47.128;15.422;2023-10-09T06:41:01;10.90;99.90
23869;DHT22;12115;47.128;15.422;2023-10-09T06:43:31;10.90;99.90
23869;DHT22;12115;47.128;15.422;2023-10-09T06:46:14;11.00;99.90
23869;DHT22;12115;47.128;15.422;2023-10-09T06:49:11;11.00;99.90
23869;DHT22;12115;47.128;15.422;2023-10-09T06:51:56;11.10;99.90
23869;DHT22;12115;47.128;15.422;2023-10-09T06:54:25;11.10;99.90
23869;DHT22;12115;47.128;15.422;2023-10-09T06:56:55;11.10;99.90
23869;DHT22;12115;47.128;15.422;2023-10-09T06:59:22;11.10;99.90
23869;DHT22;12115;47.128;15.422;2023-10-09T07:01:50;11.20;99.90
23869;DHT22;12115;47.128;15.422;2023-10-09T07:04:42;11.30;99.90
23869;DHT22;12115;47.128;15.422;2023-10-09T07:07:12;11.40;99.90
23869;DHT22;12115;47.128;15.422;2023-10-09T07:09:47;11.50;99.90
23869;DHT22;12115;47.128;15.422;2023-10-09T07:12:33;11.60;99.90
23869;DHT22;12115;47.128;15.422;2023-10-09T07:15:01;11.60;99.90
23869;DHT22;12115;47.128;15.422;2023-10-09T07:17:28;11.70;99.90
23869;DHT22;12115;47.128;15.422;2023-10-09T07:20:13;11.80;99.90
23869;DHT22;12115;47.128;15.422;2023-10-09T07:23:03;11.90;99.90
23869;DHT22;12115;47.128;15.422;2023-10-09T07:25:43;12.10;99.90
23869;DHT22;12115;47.128;15.422;2023-10-09T07:28:15;12.20;99.90
23869;DHT22;12115;47.128;15.422;2023-10-09T07:30:45;12.30;99.90
23869;DHT22;12115;47.128;15.422;2023-10-09T07:33:23;12.30;99.90
23869;DHT22;12115;47.128;15.422;2023-10-09T07:36:00;12.30;99.90
23869;DHT22;12115;47.128;15.422;2023-10-09T07:38:33;12.40;99.90
23869;DHT22;12115;47.128;15.422;2023-10-09T07:41:02;12.40;99.90
23869;DHT22;12115;47.128;15.422;2023-10-09T07:43:33;12.50;99.90
23869;DHT22;12115;47.128;15.422;2023-10-09T07:46:13;12.60;99.90
23869;DHT22;12115;47.128;15.422;2023-10-09T07:48:59;12.80;99.90
23869;DHT22;12115;47.128;15.422;2023-10-09T07:51:27;13.10;99.90
23869;DHT22;12115;47.128;15.422;2023-10-09T07:54:00;13.40;99.90
23869;DHT22;12115;47.128;15.422;2023-10-09T07:56:42;13.50;99.90
23869;DHT22;12115;47.128;15.422;2023-10-09T07:59:12;14.00;99.90
23869;DHT22;12115;47.128;15.422;2023-10-09T08:01:40;14.20;99.90
23869;DHT22;12115;47.128;15.422;2023-10-09T08:04:22;14.40;99.90
23869;DHT22;12115;47.128;15.422;2023-10-09T08:07:08;14.70;99.90
23869;DHT22;12115;47.128;15.422;2023-10-09T08:09:56;15.20;99.90
23869;DHT22;12115;47.128;15.422;2023-10-09T08:12:42;15.40;99.90
23869;DHT22;12115;47.128;15.422;2023-10-09T08:15:38;15.80;99.90
23869;DHT22;12115;47.128;15.422;2023-10-09T08:18:26;16.10;99.90
23869;DHT22;12115;47.128;15.422;2023-10-09T08:20:56;16.50;99.90
23869;DHT22;12115;47.128;15.422;2023-10-09T08:23:28;16.60;99.90
23869;DHT22;12115;47.128;15.422;2023-10-09T08:26:02;16.60;99.90
23869;DHT22;12115;47.128;15.422;2023-10-09T08:28:42;16.30;99.90
23869;DHT22;12115;47.128;15.422;2023-10-09T08:31:16;16.50;99.90
23869;DHT22;12115;47.128;15.422;2023-10-09T08:34:01;16.80;99.90
23869;DHT22;12115;47.128;15.422;2023-10-09T08:36:32;17.00;99.90
23869;DHT22;12115;47.128;15.422;2023-10-09T08:39:04;17.20;99.90
23869;DHT22;12115;47.128;15.422;2023-10-09T08:42:03;17.40;99.90
23869;DHT22;12115;47.128;15.422;2023-10-09T08:44:34;17.40;99.90
23869;DHT22;12115;47.128;15.422;2023-10-09T08:47:02;17.40;99.90
23869;DHT22;12115;47.128;15.422;2023-10-09T08:49:30;17.40;99.90
23869;DHT22;12115;47.128;15.422;2023-10-09T08:52:00;17.50;99.90
23869;DHT22;12115;47.128;15.422;2023-10-09T08:54:30;17.30;99.90
23869;DHT22;12115;47.128;15.422;2023-10-09T08:57:03;17.30;99.90
23869;DHT22;12115;47.128;15.422;2023-10-09T08:59:40;17.30;99.90
23869;DHT22;12115;47.128;15.422;2023-10-09T09:02:07;17.20;99.90
23869;DHT22;12115;47.128;15.422;2023-10-09T09:04:39;17.20;99.90
23869;DHT22;12115;47.128;15.422;2023-10-09T09:07:28;17.20;99.90
23869;DHT22;12115;47.128;15.422;2023-10-09T09:09:57;17.20;99.90
23869;DHT22;12115;47.128;15.422;2023-10-09T09:12:24;17.20;99.90
23869;DHT22;12115;47.128;15.422;2023-10-09T09:14:55;17.10;99.90
23869;DHT22;12115;47.128;15.422;2023-10-09T09:17:29;17.10;99.90
23869;DHT22;12115;47.128;15.422;2023-10-09T09:20:11;17.00;99.90
23869;DHT22;12115;47.128;15.422;2023-10-09T09:22:53;16.80;99.90
23869;DHT22;12115;47.128;15.422;2023-10-09T09:25:24;16.60;99.90
23869;DHT22;12115;47.128;15.422;2023-10-09T09:27:52;16.30;99.90
23869;DHT22;12115;47.128;15.422;2023-10-09T09:30:23;16.30;99.90
23869;DHT22;12115;47.128;15.422;2023-10-09T09:32:51;16.30;99.90
23869;DHT22;12115;47.128;15.422;2023-10-09T09:35:38;16.10;99.90
23869;DHT22;12115;47.128;15.422;2023-10-09T09:38:06;16.00;99.90
23869;DHT22;12115;47.128;15.422;2023-10-09T09:40:34;16.50;99.90
23869;DHT22;12115;47.128;15.422;2023-10-09T09:43:08;16.80;99.90
23869;DHT22;12115;47.128;15.422;2023-10-09T09:45:48;17.20;99.90
23869;DHT22;12115;47.128;15.422;2023-10-09T09:48:20;17.40;99.90
23869;DHT22;12115;47.128;15.422;2023-10-09T09:50:52;18.20;99.90
23869;DHT22;12115;47.128;15.422;2023-10-09T09:53:21;18.60;99.90
23869;DHT22;12115;47.128;15.422;2023-10-09T09:55:50;18.40;99.90
23869;DHT22;12115;47.128;15.422;2023-10-09T09:58:25;18.50;99.90
23869;DHT22;12115;47.128;15.422;2023-10-09T10:00:56;18.70;99.90
23869;DHT22;12115;47.128;15.422;2023-10-09T10:03:29;18.80;99.90
23869;DHT22;12115;47.128;15.422;2023-10-09T10:06:00;18.70;99.90
23869;DHT22;12115;47.128;15.422;2023-10-09T10:08:32;18.50;99.90
23869;DHT22;12115;47.128;15.422;2023-10-09T10:11:00;18.50;99.90
23869;DHT22;12115;47.128;15.422;2023-10-09T10:16:13;18.00;99.90
23869;DHT22;12115;47.128;15.422;2023-10-09T10:21:37;17.40;99.90
23869;DHT22;12115;47.128;15.422;2023-10-09T10:27:19;17.50;99.90
23869;DHT22;12115;47.128;15.422;2023-10-09T10:33:02;17.50;99.90
23869;DHT22;12115;47.128;15.422;2023-10-09T10:35:39;17.60;99.90
23869;DHT22;12115;47.128;15.422;2023-10-09T10:38:22;17.60;99.90
23869;DHT22;12115;47.128;15.422;2023-10-09T10:40:49;17.40;99.90
23869;DHT22;12115;47.128;15.422;2023-10-09T10:43:27;17.50;99.90
23869;DHT22;12115;47.128;15.422;2023-10-09T10:46:24;17.60;99.90
23869;DHT22;12115;47.128;15.422;2023-10-09T10:48:52;17.50;99.90
23869;DHT22;12115;47.128;15.422;2023-10-09T10:51:38;17.50;99.90
23869;DHT22;12115;47.128;15.422;2023-10-09T10:54:07;17.80;99.90
23869;DHT22;12115;47.128;15.422;2023-10-09T10:56:57;17.90;99.90
23869;DHT22;12115;47.128;15.422;2023-10-09T10:59:25;17.90;99.90
23869;DHT22;12115;47.128;15.422;2023-10-09T11:01:56;18.00;99.90
23869;DHT22;12115;47.128;15.422;2023-10-09T11:04:29;18.00;99.90
23869;DHT22;12115;47.128;15.422;2023-10-09T11:06:57;18.10;99.90
23869;DHT22;12115;47.128;15.422;2023-10-09T11:09:45;18.10;99.90
23869;DHT22;12115;47.128;15.422;2023-10-09T11:12:31;18.30;99.90
23869;DHT22;12115;47.128;15.422;2023-10-09T11:15:05;18.00;99.90
23869;DHT22;12115;47.128;15.422;2023-10-09T11:17:34;17.90;99.90
23869;DHT22;12115;47.128;15.422;2023-10-09T11:20:03;17.80;99.90
23869;DHT22;12115;47.128;15.422;2023-10-09T11:22:49;17.90;99.90
23869;DHT22;12115;47.128;15.422;2023-10-09T11:25:35;18.10;99.90
23869;DHT22;12115;47.128;15.422;2023-10-09T11:28:25;18.10;99.90
23869;DHT22;12115;47.128;15.422;2023-10-09T11:31:15;18.20;99.90
23869;DHT22;12115;47.128;15.422;2023-10-09T11:33:48;18.30;99.90
23869;DHT22;12115;47.128;15.422;2023-10-09T11:36:18;18.30;99.90
23869;DHT22;12115;47.128;15.422;2023-10-09T11:38:58;18.30;99.90
23869;DHT22;12115;47.128;15.422;2023-10-09T11:41:43;18.30;99.90
23869;DHT22;12115;47.128;15.422;2023-10-09T11:44:11;18.20;99.90
23869;DHT22;12115;47.128;15.422;2023-10-09T11:47:00;18.30;99.90
23869;DHT22;12115;47.128;15.422;2023-10-09T11:50:04;18.30;99.90
23869;DHT22;12115;47.128;15.422;2023-10-09T11:52:57;18.40;99.90
23869;DHT22;12115;47.128;15.422;2023-10-09T11:55:36;18.40;99.90
23869;DHT22;12115;47.128;15.422;2023-10-09T11:58:04;18.50;99.90
23869;DHT22;12115;47.128;15.422;2023-10-09T12:00:31;18.50;99.90
23869;DHT22;12115;47.128;15.422;2023-10-09T12:03:11;18.60;99.90
23869;DHT22;12115;47.128;15.422;2023-10-09T12:05:40;18.70;99.90
23869;DHT22;12115;47.128;15.422;2023-10-09T12:08:11;18.70;99.90
23869;DHT22;12115;47.128;15.422;2023-10-09T12:10:41;18.50;99.90
23869;DHT22;12115;47.128;15.422;2023-10-09T12:13:08;18.60;99.90
23869;DHT22;12115;47.128;15.422;2023-10-09T12:15:35;18.80;99.90
23869;DHT22;12115;47.128;15.422;2023-10-09T12:18:05;18.90;99.90
23869;DHT22;12115;47.128;15.422;2023-10-09T12:20:38;18.90;99.90
23869;DHT22;12115;47.128;15.422;2023-10-09T12:23:06;18.90;99.90
23869;DHT22;12115;47.128;15.422;2023-10-09T12:25:33;19.00;99.90
23869;DHT22;12115;47.128;15.422;2023-10-09T12:28:02;19.10;99.90
23869;DHT22;12115;47.128;15.422;2023-10-09T12:30:29;19.20;99.90
23869;DHT22;12115;47.128;15.422;2023-10-09T12:32:57;19.20;99.90
23869;DHT22;12115;47.128;15.422;2023-10-09T12:35:24;19.20;99.90
23869;DHT22;12115;47.128;15.422;2023-10-09T12:37:52;19.10;99.90
23869;DHT22;12115;47.128;15.422;2023-10-09T12:40:21;19.10;99.90
23869;DHT22;12115;47.128;15.422;2023-10-09T12:42:51;19.10;99.90
23869;DHT22;12115;47.128;15.422;2023-10-09T12:45:19;19.00;99.90
23869;DHT22;12115;47.128;15.422;2023-10-09T12:47:53;19.10;99.90
23869;DHT22;12115;47.128;15.422;2023-10-09T12:50:21;19.10;99.90
23869;DHT22;12115;47.128;15.422;2023-10-09T12:52:57;19.20;99.90
23869;DHT22;12115;47.128;15.422;2023-10-09T12:55:28;19.30;99.90
23869;DHT22;12115;47.128;15.422;2023-10-09T12:58:02;19.30;99.90
23869;DHT22;12115;47.128;15.422;2023-10-09T13:00:36;19.30;99.90
23869;DHT22;12115;47.128;15.422;2023-10-09T13:03:11;19.30;99.90
23869;DHT22;12115;47.128;15.422;2023-10-09T13:05:51;19.30;99.90
23869;DHT22;12115;47.128;15.422;2023-10-09T13:08:19;19.40;99.90
23869;DHT22;12115;47.128;15.422;2023-10-09T13:10:51;19.40;99.90
23869;DHT22;12115;47.128;15.422;2023-10-09T13:13:28;19.40;99.90
23869;DHT22;12115;47.128;15.422;2023-10-09T13:16:12;19.40;99.90
23869;DHT22;12115;47.128;15.422;2023-10-09T13:18:47;19.40;99.90
23869;DHT22;12115;47.128;15.422;2023-10-09T13:21:27;19.40;99.90
23869;DHT22;12115;47.128;15.422;2023-10-09T13:23:59;19.50;99.90
23869;DHT22;12115;47.128;15.422;2023-10-09T13:26:28;19.40;99.90
23869;DHT22;12115;47.128;15.422;2023-10-09T13:29:02;19.40;99.90
23869;DHT22;12115;47.128;15.422;2023-10-09T13:31:30;19.40;99.90
23869;DHT22;12115;47.128;15.422;2023-10-09T13:34:01;19.40;99.90
23869;DHT22;12115;47.128;15.422;2023-10-09T13:36:33;19.40;99.90
23869;DHT22;12115;47.128;15.422;2023-10-09T13:39:05;19.40;99.90
23869;DHT22;12115;47.128;15.422;2023-10-09T13:41:51;19.40;99.90
23869;DHT22;12115;47.128;15.422;2023-10-09T13:44:40;19.40;99.90
23869;DHT22;12115;47.128;15.422;2023-10-09T13:47:09;19.40;99.90
23869;DHT22;12115;47.128;15.422;2023-10-09T13:49:49;19.40;99.90
23869;DHT22;12115;47.128;15.422;2023-10-09T13:52:18;19.40;99.90
23869;DHT22;12115;47.128;15.422;2023-10-09T13:54:45;19.40;99.90
23869;DHT22;12115;47.128;15.422;2023-10-09T13:57:16;19.40;99.90
23869;DHT22;12115;47.128;15.422;2023-10-09T13:59:43;19.40;99.90
23869;DHT22;12115;47.128;15.422;2023-10-09T14:02:16;19.40;99.90
23869;DHT22;12115;47.128;15.422;2023-10-09T14:04:45;19.40;99.90
23869;DHT22;12115;47.128;15.422;2023-10-09T14:07:16;19.40;99.90
23869;DHT22;12115;47.128;15.422;2023-10-09T14:09:47;19.40;99.90
23869;DHT22;12115;47.128;15.422;2023-10-09T14:12:34;19.40;99.90
23869;DHT22;12115;47.128;15.422;2023-10-09T14:15:07;19.40;99.90
23869;DHT22;12115;47.128;15.422;2023-10-09T14:17:38;19.50;99.90
23869;DHT22;12115;47.128;15.422;2023-10-09T14:20:09;19.40;99.90
23869;DHT22;12115;47.128;15.422;2023-10-09T14:22:55;19.40;99.90
23869;DHT22;12115;47.128;15.422;2023-10-09T14:25:22;19.30;99.90
23869;DHT22;12115;47.128;15.422;2023-10-09T14:27:50;19.30;99.90
23869;DHT22;12115;47.128;15.422;2023-10-09T14:30:20;19.20;99.90
23869;DHT22;12115;47.128;15.422;2023-10-09T14:32:58;19.20;99.90
23869;DHT22;12115;47.128;15.422;2023-10-09T14:35:25;19.10;99.90
23869;DHT22;12115;47.128;15.422;2023-10-09T14:37:57;19.10;99.90
23869;DHT22;12115;47.128;15.422;2023-10-09T14:40:24;19.10;99.90
23869;DHT22;12115;47.128;15.422;2023-10-09T14:42:58;19.10;99.90
23869;DHT22;12115;47.128;15.422;2023-10-09T14:45:25;19.10;99.90
23869;DHT22;12115;47.128;15.422;2023-10-09T14:47:53;19.00;99.90
23869;DHT22;12115;47.128;15.422;2023-10-09T14:50:21;18.80;99.90
23869;DHT22;12115;47.128;15.422;2023-10-09T14:52:51;18.80;99.90
23869;DHT22;12115;47.128;15.422;2023-10-09T14:55:18;18.80;99.90
23869;DHT22;12115;47.128;15.422;2023-10-09T14:57:56;18.80;99.90
23869;DHT22;12115;47.128;15.422;2023-10-09T15:00:26;18.80;99.90
23869;DHT22;12115;47.128;15.422;2023-10-09T15:02:53;18.70;99.90
23869;DHT22;12115;47.128;15.422;2023-10-09T15:05:20;18.70;99.90
23869;DHT22;12115;47.128;15.422;2023-10-09T15:07:50;18.70;99.90
23869;DHT22;12115;47.128;15.422;2023-10-09T15:10:19;18.60;99.90
23869;DHT22;12115;47.128;15.422;2023-10-09T15:12:50;18.50;99.90
23869;DHT22;12115;47.128;15.422;2023-10-09T15:15:17;18.50;99.90
23869;DHT22;12115;47.128;15.422;2023-10-09T15:17:45;18.40;99.90
23869;DHT22;12115;47.128;15.422;2023-10-09T15:20:15;18.40;99.90
23869;DHT22;12115;47.128;15.422;2023-10-09T15:22:44;18.30;99.90
23869;DHT22;12115;47.128;15.422;2023-10-09T15:25:11;18.20;99.90
23869;DHT22;12115;47.128;15.422;2023-10-09T15:27:42;18.10;99.90
23869;DHT22;12115;47.128;15.422;2023-10-09T15:30:10;18.20;99.90
23869;DHT22;12115;47.128;15.422;2023-10-09T15:32:41;18.20;99.90
23869;DHT22;12115;47.128;15.422;2023-10-09T15:35:09;18.10;99.90
23869;DHT22;12115;47.128;15.422;2023-10-09T15:37:42;18.00;99.90
23869;DHT22;12115;47.128;15.422;2023-10-09T15:40:10;18.00;99.90
23869;DHT22;12115;47.128;15.422;2023-10-09T15:42:45;18.00;99.90
23869;DHT22;12115;47.128;15.422;2023-10-09T15:45:18;18.00;99.90
23869;DHT22;12115;47.128;15.422;2023-10-09T15:47:49;17.80;99.90
23869;DHT22;12115;47.128;15.422;2023-10-09T15:50:19;17.80;99.90
23869;DHT22;12115;47.128;15.422;2023-10-09T15:52:46;17.60;99.90
23869;DHT22;12115;47.128;15.422;2023-10-09T15:55:16;17.60;99.90
23869;DHT22;12115;47.128;15.422;2023-10-09T15:57:47;17.70;99.90
23869;DHT22;12115;47.128;15.422;2023-10-09T16:00:25;17.70;99.90
23869;DHT22;12115;47.128;15.422;2023-10-09T16:02:56;17.60;99.90
23869;DHT22;12115;47.128;15.422;2023-10-09T16:05:23;17.60;99.90
23869;DHT22;12115;47.128;15.422;2023-10-09T16:07:54;17.40;99.90
23869;DHT22;12115;47.128;15.422;2023-10-09T16:10:22;17.30;99.90
23869;DHT22;12115;47.128;15.422;2023-10-09T16:12:49;17.30;99.90
23869;DHT22;12115;47.128;15.422;2023-10-09T16:15:18;17.20;99.90
23869;DHT22;12115;47.128;15.422;2023-10-09T16:17:46;17.20;99.90
23869;DHT22;12115;47.128;15.422;2023-10-09T16:20:15;17.20;99.90
23869;DHT22;12115;47.128;15.422;2023-10-09T16:22:49;17.10;99.90
23869;DHT22;12115;47.128;15.422;2023-10-09T16:25:17;17.00;99.90
23869;DHT22;12115;47.128;15.422;2023-10-09T16:27:48;16.90;99.90
23869;DHT22;12115;47.128;15.422;2023-10-09T16:30:17;16.80;99.90
23869;DHT22;12115;47.128;15.422;2023-10-09T16:32:50;16.70;99.90